createdAt,value
2022-08-26T00:02:11.731Z,98500.69
2022-08-26T00:04:39.130Z,98497.53
2022-08-26T00:07:06.816Z,98492.56
2022-08-26T00:09:39.040Z,98493.72
2022-08-26T00:12:09.388Z,98487.91
2022-08-26T00:14:39.955Z,98486.72
2022-08-26T00:17:08.674Z,98488.75
2022-08-26T00:19:36.081Z,98489.06
2022-08-26T00:22:03.849Z,98496.31
2022-08-26T00:24:31.226Z,98494.78
2022-08-26T00:26:58.842Z,98500.88
2022-08-26T00:29:26.128Z,98495.53
2022-08-26T00:31:53.461Z,98500.34
2022-08-26T00:34:20.844Z,98501.69
2022-08-26T00:36:49.254Z,98507.00
2022-08-26T00:39:20.573Z,98500.88
2022-08-26T00:41:53.488Z,98493.03
2022-08-26T00:44:21.557Z,98500.81
2022-08-26T00:47:00.780Z,98496.16
2022-08-26T00:49:40.767Z,98486.88
2022-08-26T00:52:19.184Z,98497.38
2022-08-26T00:55:22.336Z,98490.22
2022-08-26T00:57:52.687Z,98494.69
2022-08-26T01:00:27.855Z,98499.34
2022-08-26T01:02:57.008Z,98500.00
2022-08-26T01:05:25.462Z,98504.97
2022-08-26T01:07:52.854Z,98509.63
2022-08-26T01:10:27.347Z,98506.81
2022-08-26T01:13:10.230Z,98506.13
2022-08-26T01:15:50.320Z,98510.91
2022-08-26T01:18:18.474Z,98505.84
2022-08-26T01:21:25.390Z,98513.69
2022-08-26T01:23:57.727Z,98506.34
2022-08-26T01:26:35.299Z,98512.63
2022-08-26T01:29:08.340Z,98505.47
2022-08-26T01:31:45.413Z,98506.06
2022-08-26T01:34:27.211Z,98506.28
2022-08-26T01:37:07.030Z,98507.03
2022-08-26T01:39:37.181Z,98501.47
2022-08-26T01:42:11.635Z,98501.00
2022-08-26T01:45:11.312Z,98503.28
2022-08-26T01:47:39.893Z,98499.81
2022-08-26T01:50:28.203Z,98503.13
2022-08-26T01:53:07.040Z,98509.97
2022-08-26T01:55:40.034Z,98499.34
2022-08-26T01:58:20.867Z,98512.94
2022-08-26T02:00:49.439Z,98504.53
2022-08-26T02:03:22.187Z,98511.34
2022-08-26T02:06:00.372Z,98511.38
2022-08-26T02:08:38.011Z,98505.94
2022-08-26T02:11:05.662Z,98515.31
2022-08-26T02:13:41.663Z,98511.16
2022-08-26T02:16:11.062Z,98515.59
2022-08-26T02:18:43.912Z,98518.00
2022-08-26T02:21:15.265Z,98519.75
2022-08-26T02:23:42.920Z,98517.28
2022-08-26T02:26:21.241Z,98520.25
2022-08-26T02:29:08.854Z,98521.69
2022-08-26T02:31:36.185Z,98518.06
2022-08-26T02:34:20.256Z,98509.19
2022-08-26T02:36:49.357Z,98516.94
2022-08-26T02:39:22.023Z,98520.06
2022-08-26T02:41:50.520Z,98509.88
2022-08-26T02:44:17.897Z,98522.50
2022-08-26T02:46:47.256Z,98512.75
2022-08-26T02:49:17.004Z,98514.56
2022-08-26T02:51:49.549Z,98506.94
2022-08-26T02:54:19.620Z,98508.59
2022-08-26T02:56:48.176Z,98509.59
2022-08-26T02:59:15.583Z,98514.88
2022-08-26T03:01:45.010Z,98510.88
2022-08-26T03:04:13.920Z,98509.75
2022-08-26T03:06:42.542Z,98508.63
2022-08-26T03:09:09.981Z,98508.59
2022-08-26T03:11:41.842Z,98503.19
2022-08-26T03:14:11.090Z,98505.53
2022-08-26T03:16:40.097Z,98502.56
2022-08-26T03:19:09.998Z,98499.63
2022-08-26T03:21:39.282Z,98500.75
2022-08-26T03:24:06.835Z,98494.88
2022-08-26T03:26:34.050Z,98499.34
2022-08-26T03:29:30.838Z,98494.78
2022-08-26T03:32:01.540Z,98505.81
2022-08-26T03:34:28.741Z,98505.25
2022-08-26T03:36:55.923Z,98490.25
2022-08-26T03:39:23.694Z,98501.09
2022-08-26T03:41:52.476Z,98498.06
2022-08-26T03:44:21.737Z,98497.31
2022-08-26T03:46:49.667Z,98499.25
2022-08-26T03:49:17.583Z,98504.03
2022-08-26T03:51:45.676Z,98506.16
2022-08-26T03:54:13.646Z,98512.59
2022-08-26T03:56:41.252Z,98510.13
2022-08-26T03:59:09.329Z,98510.13
2022-08-26T04:01:36.883Z,98506.19
2022-08-26T04:04:04.554Z,98508.88
2022-08-26T04:06:39.835Z,98507.94
2022-08-26T04:09:17.883Z,98509.53
2022-08-26T04:11:47.467Z,98509.72
2022-08-26T04:14:23.687Z,98505.38
2022-08-26T04:16:53.706Z,98509.94
2022-08-26T04:19:24.812Z,98511.38
2022-08-26T04:21:53.445Z,98502.97
2022-08-26T04:24:25.130Z,98507.28
2022-08-26T04:26:53.209Z,98502.03
2022-08-26T04:29:25.787Z,98510.69
2022-08-26T04:31:55.930Z,98500.56
2022-08-26T04:34:28.525Z,98498.38
2022-08-26T04:36:57.900Z,98497.22
2022-08-26T04:39:27.755Z,98501.47
2022-08-26T04:41:57.769Z,98505.59
2022-08-26T04:44:29.769Z,98501.38
2022-08-26T04:46:58.827Z,98502.19
2022-08-26T04:49:27.578Z,98496.41
2022-08-26T04:51:55.310Z,98501.28
2022-08-26T04:54:23.489Z,98508.47
2022-08-26T04:56:52.791Z,98506.00
2022-08-26T04:59:20.139Z,98509.69
2022-08-26T05:01:59.332Z,98513.31
2022-08-26T05:04:26.662Z,98507.75
2022-08-26T05:06:57.832Z,98518.41
2022-08-26T05:09:29.881Z,98516.06
2022-08-26T05:11:58.017Z,98516.66
2022-08-26T05:14:25.311Z,98508.81
2022-08-26T05:16:53.900Z,98519.38
2022-08-26T05:19:21.264Z,98515.63
2022-08-26T05:21:49.198Z,98520.09
2022-08-26T05:24:18.113Z,98523.91
2022-08-26T05:26:46.419Z,98521.09
2022-08-26T05:29:14.171Z,98526.81
2022-08-26T05:31:41.921Z,98523.84
2022-08-26T05:34:15.638Z,98523.94
2022-08-26T05:36:46.914Z,98536.47
2022-08-26T05:39:14.235Z,98532.38
2022-08-26T05:41:43.145Z,98528.28
2022-08-26T05:44:18.891Z,98530.06
2022-08-26T05:46:46.391Z,98532.09
2022-08-26T05:49:16.230Z,98533.38
2022-08-26T05:51:47.536Z,98532.28
2022-08-26T05:54:22.399Z,98535.84
2022-08-26T05:56:51.970Z,98539.09
2022-08-26T05:59:21.368Z,98546.91
2022-08-26T06:01:54.618Z,98541.00
2022-08-26T06:04:27.111Z,98539.91
2022-08-26T06:06:56.231Z,98543.19
2022-08-26T06:09:24.498Z,98540.28
2022-08-26T06:11:52.309Z,98545.38
2022-08-26T06:14:20.958Z,98548.56
2022-08-26T06:16:49.062Z,98551.09
2022-08-26T06:19:17.210Z,98551.03
2022-08-26T06:21:54.246Z,98556.94
2022-08-26T06:24:41.112Z,98555.28
2022-08-26T06:27:13.364Z,98558.00
2022-08-26T06:29:40.668Z,98553.72
2022-08-26T06:32:08.768Z,98556.56
2022-08-26T06:34:36.181Z,98565.03
2022-08-26T06:37:06.487Z,98567.28
2022-08-26T06:39:34.333Z,98568.13
2022-08-26T06:42:02.943Z,98567.72
2022-08-26T06:44:34.500Z,98573.81
2022-08-26T06:47:02.030Z,98575.13
2022-08-26T06:49:29.289Z,98579.75
2022-08-26T06:52:00.073Z,98581.13
2022-08-26T06:54:31.604Z,98574.22
2022-08-26T06:57:01.047Z,98578.06
2022-08-26T06:59:28.351Z,98573.50
2022-08-26T07:01:55.695Z,98578.16
2022-08-26T07:04:24.935Z,98577.59
2022-08-26T07:06:56.285Z,98577.44
2022-08-26T07:09:27.934Z,98583.88
2022-08-26T07:11:56.551Z,98582.00
2022-08-26T07:14:26.069Z,98587.97
2022-08-26T07:16:54.949Z,98583.50
2022-08-26T07:19:31.092Z,98580.47
2022-08-26T07:22:06.335Z,98581.94
2022-08-26T07:24:42.507Z,98581.56
2022-08-26T07:27:16.804Z,98585.44
2022-08-26T07:29:44.880Z,98583.78
2022-08-26T07:32:15.102Z,98586.00
2022-08-26T07:34:43.471Z,98589.34
2022-08-26T07:37:12.082Z,98586.59
2022-08-26T07:39:41.587Z,98589.47
2022-08-26T07:42:14.756Z,98596.34
2022-08-26T07:44:43.844Z,98589.81
2022-08-26T07:47:25.157Z,98588.09
2022-08-26T07:49:57.950Z,98586.88
2022-08-26T07:52:29.319Z,98588.16
2022-08-26T07:55:01.017Z,98579.78
2022-08-26T07:57:30.312Z,98580.69
2022-08-26T07:59:59.108Z,98584.47
2022-08-26T08:02:29.172Z,98579.13
2022-08-26T08:04:58.331Z,98582.09
2022-08-26T08:07:44.907Z,98578.75
2022-08-26T08:10:20.750Z,98584.84
2022-08-26T08:12:53.110Z,98580.00
2022-08-26T08:15:26.404Z,98573.34
2022-08-26T08:17:58.835Z,98569.41
2022-08-26T08:20:29.952Z,98575.88
2022-08-26T08:22:57.473Z,98566.81
2022-08-26T08:25:25.117Z,98567.44
2022-08-26T08:27:52.367Z,98569.66
2022-08-26T08:30:22.757Z,98564.81
2022-08-26T08:32:51.620Z,98563.91
2022-08-26T08:35:23.975Z,98564.63
2022-08-26T08:37:54.832Z,98553.88
2022-08-26T08:40:26.618Z,98553.25
2022-08-26T08:43:17.491Z,98553.13
2022-08-26T08:45:58.241Z,98554.50
2022-08-26T08:48:33.923Z,98559.72
2022-08-26T08:51:34.168Z,98562.09
2022-08-26T08:54:02.739Z,98551.38
2022-08-26T08:57:00.629Z,98553.53
2022-08-26T08:59:35.788Z,98550.03
2022-08-26T09:02:22.281Z,98550.69
2022-08-26T09:05:22.461Z,98550.69
2022-08-26T09:08:17.517Z,98546.47
2022-08-26T09:10:59.523Z,98540.66
2022-08-26T09:13:29.084Z,98534.69
2022-08-26T09:17:04.921Z,98542.38
2022-08-26T09:19:54.853Z,98534.91
2022-08-26T09:22:37.414Z,98530.13
2022-08-26T09:25:11.834Z,98534.34
2022-08-26T09:27:52.452Z,98527.72
2022-08-26T09:30:31.156Z,98520.25
2022-08-26T09:33:10.355Z,98530.91
2022-08-26T09:35:48.728Z,98522.66
2022-08-26T09:38:34.071Z,98521.63
2022-08-26T09:41:08.254Z,98515.50
2022-08-26T09:43:36.170Z,98517.13
2022-08-26T09:46:26.160Z,98508.56
2022-08-26T09:48:53.861Z,98516.00
2022-08-26T09:51:31.753Z,98491.69
2022-08-26T09:54:03.003Z,98492.09
2022-08-26T09:56:39.663Z,98479.56
2022-08-26T09:59:12.054Z,98468.88
2022-08-26T10:01:45.305Z,98462.63
2022-08-26T10:04:23.238Z,98453.28
2022-08-26T10:07:08.242Z,98457.19
2022-08-26T10:09:44.453Z,98460.69
2022-08-26T10:12:20.514Z,98459.53
2022-08-26T10:14:54.154Z,98451.22
2022-08-26T10:17:36.643Z,98448.59
2022-08-26T10:20:23.449Z,98445.13
2022-08-26T10:23:14.852Z,98447.84
2022-08-26T10:26:05.284Z,98425.44
2022-08-26T10:29:19.809Z,98425.09
2022-08-26T10:32:10.354Z,98435.41
2022-08-26T10:34:43.218Z,98422.88
2022-08-26T10:37:21.760Z,98421.63
2022-08-26T10:40:02.449Z,98419.00
2022-08-26T10:42:58.762Z,98427.13
2022-08-26T10:45:33.119Z,98423.78
2022-08-26T10:48:05.448Z,98419.41
2022-08-26T10:50:43.931Z,98417.47
2022-08-26T10:53:42.641Z,98408.94
2022-08-26T10:56:47.021Z,98408.63
2022-08-26T10:59:55.670Z,98401.09
2022-08-26T11:02:47.139Z,98398.53
2022-08-26T11:05:23.563Z,98389.44
2022-08-26T11:07:56.338Z,98386.41
2022-08-26T11:10:24.223Z,98378.72
2022-08-26T11:13:07.217Z,98375.44
2022-08-26T11:15:40.522Z,98358.56
2022-08-26T11:18:12.543Z,98362.31
2022-08-26T11:20:47.238Z,98369.88
2022-08-26T11:23:23.258Z,98377.84
2022-08-26T11:26:35.391Z,98356.22
2022-08-26T11:29:04.412Z,98351.25
2022-08-26T11:31:39.388Z,98347.28
2022-08-26T11:34:13.848Z,98352.09
2022-08-26T11:37:00.225Z,98352.13
2022-08-26T11:39:57.100Z,98341.06
2022-08-26T11:43:40.540Z,98341.91
2022-08-26T11:46:13.301Z,98341.47
2022-08-26T11:48:43.890Z,98346.25
2022-08-26T11:52:26.639Z,98353.91
2022-08-26T11:55:14.933Z,98356.00
2022-08-26T11:57:53.673Z,98357.88
2022-08-26T12:01:36.206Z,98371.69
2022-08-26T12:05:19.187Z,98358.50
2022-08-26T12:09:02.404Z,98361.22
2022-08-26T12:11:37.042Z,98356.66
2022-08-26T12:15:21.923Z,98352.88
2022-08-26T12:19:04.514Z,98354.56
2022-08-26T12:21:34.902Z,98356.75
2022-08-26T12:24:04.537Z,98357.13
2022-08-26T12:26:39.209Z,98360.50
2022-08-26T12:29:26.834Z,98357.22
2022-08-26T12:32:17.613Z,98344.91
2022-08-26T12:34:48.887Z,98339.38
2022-08-26T12:37:18.902Z,98336.09
2022-08-26T12:40:29.004Z,98333.09
2022-08-26T12:43:00.458Z,98338.63
2022-08-26T12:45:43.015Z,98326.09
2022-08-26T12:48:29.751Z,98328.13
2022-08-26T12:50:58.947Z,98326.69
2022-08-26T12:53:42.066Z,98326.63
2022-08-26T12:56:40.800Z,98318.53
2022-08-26T12:59:25.994Z,98298.66
2022-08-26T13:01:54.572Z,98307.28
2022-08-26T13:04:40.505Z,98299.34
2022-08-26T13:07:21.827Z,98295.53
2022-08-26T13:09:56.291Z,98297.16
2022-08-26T13:12:37.321Z,98287.53
2022-08-26T13:15:07.321Z,98284.31
2022-08-26T13:17:35.924Z,98294.75
2022-08-26T13:20:04.661Z,98273.88
2022-08-26T13:22:32.308Z,98275.75
2022-08-26T13:24:59.743Z,98269.81
2022-08-26T13:27:27.923Z,98274.81
2022-08-26T13:29:57.554Z,98259.09
2022-08-26T13:32:27.366Z,98256.72
2022-08-26T13:34:57.506Z,98252.69
2022-08-26T13:37:35.171Z,98254.34
2022-08-26T13:40:07.413Z,98262.00
2022-08-26T13:42:35.598Z,98257.06
2022-08-26T13:45:03.917Z,98252.63
2022-08-26T13:47:33.074Z,98249.56
2022-08-26T13:50:00.415Z,98250.53
2022-08-26T13:52:30.374Z,98247.44
2022-08-26T13:55:00.842Z,98250.53
2022-08-26T13:57:30.148Z,98254.19
2022-08-26T13:59:59.313Z,98259.72
2022-08-26T14:02:27.948Z,98252.31
2022-08-26T14:04:55.865Z,98254.38
2022-08-26T14:07:23.358Z,98243.59
2022-08-26T14:09:50.692Z,98250.88
2022-08-26T14:12:18.318Z,98234.81
2022-08-26T14:14:45.552Z,98237.44
2022-08-26T14:17:22.031Z,98234.00
2022-08-26T14:19:51.255Z,98234.41
2022-08-26T14:22:22.724Z,98248.19
2022-08-26T14:24:50.721Z,98249.44
2022-08-26T14:27:22.490Z,98244.81
2022-08-26T14:29:49.709Z,98245.91
2022-08-26T14:32:27.434Z,98246.78
2022-08-26T14:34:56.183Z,98254.72
2022-08-26T14:37:23.953Z,98252.69
2022-08-26T14:39:52.380Z,98265.44
2022-08-26T14:42:31.515Z,98267.16
2022-08-26T14:45:04.479Z,98264.63
2022-08-26T14:47:32.040Z,98269.19
2022-08-26T14:49:59.327Z,98270.00
2022-08-26T14:52:27.621Z,98260.94
2022-08-26T14:54:55.449Z,98266.69
2022-08-26T14:57:22.852Z,98253.94
2022-08-26T14:59:50.532Z,98251.91
2022-08-26T15:02:32.930Z,98253.97
2022-08-26T15:05:02.819Z,98242.84
2022-08-26T15:07:30.429Z,98232.16
2022-08-26T15:09:58.144Z,98237.88
2022-08-26T15:12:25.402Z,98243.53
2022-08-26T15:14:52.568Z,98249.19
2022-08-26T15:17:19.996Z,98254.78
2022-08-26T15:19:47.359Z,98268.06
2022-08-26T15:22:14.609Z,98261.53
2022-08-26T15:24:41.937Z,98255.84
2022-08-26T15:27:09.537Z,98262.16
2022-08-26T15:29:37.507Z,98260.03
2022-08-26T15:32:05.607Z,98270.59
2022-08-26T15:34:32.787Z,98264.44
2022-08-26T15:36:59.984Z,98268.16
2022-08-26T15:39:27.583Z,98272.22
2022-08-26T15:41:56.125Z,98265.47
2022-08-26T15:44:26.468Z,98265.19
2022-08-26T15:46:58.474Z,98255.09
2022-08-26T15:49:27.574Z,98251.09
2022-08-26T15:51:55.035Z,98253.16
2022-08-26T15:54:23.989Z,98249.44
2022-08-26T15:56:52.943Z,98242.50
2022-08-26T15:59:22.500Z,98251.50
2022-08-26T16:01:49.928Z,98246.28
2022-08-26T16:04:18.562Z,98250.78
2022-08-26T16:06:50.201Z,98259.69
2022-08-26T16:09:20.744Z,98272.81
2022-08-26T16:11:47.918Z,98294.50
2022-08-26T16:14:15.261Z,98300.50
2022-08-26T16:16:42.592Z,98307.75
2022-08-26T16:19:11.539Z,98318.97
2022-08-26T16:21:41.501Z,98334.53
2022-08-26T16:24:09.668Z,98338.59
2022-08-26T16:26:40.336Z,98348.03
2022-08-26T16:29:13.013Z,98349.31
2022-08-26T16:31:41.013Z,98352.69
2022-08-26T16:34:09.654Z,98359.06
2022-08-26T16:36:40.000Z,98365.63
2022-08-26T16:39:09.264Z,98365.22
2022-08-26T16:41:37.274Z,98379.97
2022-08-26T16:44:06.642Z,98369.94
2022-08-26T16:46:35.311Z,98375.63
2022-08-26T16:49:05.633Z,98385.56
2022-08-26T16:51:37.838Z,98383.19
2022-08-26T16:54:08.748Z,98384.78
2022-08-26T16:56:38.007Z,98367.97
2022-08-26T16:59:11.427Z,98365.06
2022-08-26T17:01:38.804Z,98364.84
2022-08-26T17:04:06.111Z,98373.03
2022-08-26T17:06:33.999Z,98370.41
2022-08-26T17:09:01.293Z,98377.50
2022-08-26T17:11:28.524Z,98357.84
2022-08-26T17:13:55.818Z,98368.97
2022-08-26T17:16:26.604Z,98363.66
2022-08-26T17:19:00.345Z,98357.53
2022-08-26T17:21:29.191Z,98367.69
2022-08-26T17:23:56.480Z,98374.41
2022-08-26T17:26:23.813Z,98373.25
2022-08-26T17:28:51.536Z,98375.00
2022-08-26T17:31:20.355Z,98372.03
2022-08-26T17:33:53.821Z,98365.19
2022-08-26T17:36:28.121Z,98373.72
2022-08-26T17:38:58.016Z,98368.16
2022-08-26T17:41:26.985Z,98378.91
2022-08-26T17:43:54.358Z,98386.38
2022-08-26T17:46:22.485Z,98373.94
2022-08-26T17:48:49.804Z,98367.34
2022-08-26T17:51:19.495Z,98371.66
2022-08-26T17:53:48.585Z,98371.06
2022-08-26T17:56:23.715Z,98376.63
2022-08-26T17:58:57.010Z,98370.84
2022-08-26T18:01:27.937Z,98368.72
2022-08-26T18:04:00.236Z,98382.16
2022-08-26T18:06:30.597Z,98385.97
2022-08-26T18:08:59.256Z,98382.69
2022-08-26T18:11:28.401Z,98392.13
2022-08-26T18:13:55.725Z,98397.63
2022-08-26T18:18:54.105Z,98414.59
2022-08-26T18:21:26.311Z,98420.56
2022-08-26T18:23:54.866Z,98417.84
2022-08-26T18:26:27.491Z,98423.56
2022-08-26T18:28:55.626Z,98434.94
2022-08-26T18:31:23.607Z,98445.97
2022-08-26T18:33:51.546Z,98462.19
2022-08-26T18:36:26.464Z,98495.28
2022-08-26T18:38:55.371Z,98523.81
2022-08-26T18:41:27.704Z,98539.84
2022-08-26T18:43:56.362Z,98546.84
2022-08-26T18:46:27.442Z,98546.44
2022-08-26T18:48:57.019Z,98557.78
2022-08-26T18:51:32.353Z,98555.06
2022-08-26T18:54:05.234Z,98552.47
2022-08-26T18:56:36.217Z,98543.44
2022-08-26T18:59:06.715Z,98541.97
2022-08-26T19:01:36.572Z,98535.38
2022-08-26T19:04:07.465Z,98529.63
2022-08-26T19:06:36.951Z,98535.00
2022-08-26T19:09:09.170Z,98525.59
2022-08-26T19:11:42.959Z,98522.72
2022-08-26T19:14:16.459Z,98528.09
2022-08-26T19:16:48.923Z,98524.34
2022-08-26T19:19:16.835Z,98511.75
2022-08-26T19:21:44.940Z,98516.59
2022-08-26T19:24:17.501Z,98513.75
2022-08-26T19:26:57.840Z,98517.44
2022-08-26T19:29:31.945Z,98525.03
2022-08-26T19:32:00.395Z,98532.63
2022-08-26T19:34:27.991Z,98529.44
2022-08-26T19:36:56.893Z,98520.97
2022-08-26T19:39:26.205Z,98529.19
2022-08-26T19:41:54.184Z,98525.91
2022-08-26T19:44:42.831Z,98528.56
2022-08-26T19:47:12.892Z,98526.47
2022-08-26T19:49:40.258Z,98534.19
2022-08-26T19:52:07.716Z,98533.06
2022-08-26T19:54:36.139Z,98530.63
2022-08-26T19:57:04.730Z,98547.56
2022-08-26T19:59:33.251Z,98535.81
2022-08-26T20:02:01.674Z,98550.25
2022-08-26T20:04:31.790Z,98542.91
2022-08-26T20:07:01.826Z,98545.81
